Time;durP1;ratioP1;P1;durP2;ratioP2;P2;SDS_P1;SDS_P2;PMS_P1;PMS_P2;Temp;Humidity;BMP_temperature;BMP_pressure;BME280_temperature;BME280_humidity;BME280_pressure;Samples;Min_cycle;Max_cycle;Signal;HPM_P1;HPM_P2
2022/10/28 00:01:11;;;;;;;23.73;17.15;;;;;;;;;;5037235;28;20331;-75
2022/10/28 00:03:37;;;;;;;22.45;17.50;;;;;;;;;;5037844;28;20453;-75
2022/10/28 00:06:13;;;;;;;26.05;18.58;;;;;;;;;;5037216;28;20045;-76
2022/10/28 00:08:39;;;;;;;23.45;18.38;;;;;;;;;;5037574;28;20124;-75
2022/10/28 00:11:17;;;;;;;27.67;18.75;;;;;;;;;;5037266;28;20107;-76
2022/10/28 00:13:43;;;;;;;28.35;18.85;;;;;;;;;;5037243;28;20120;-73
2022/10/28 00:16:13;;;;;;;23.90;17.27;;;;;;;;;;5019651;28;20034;-71
2022/10/28 00:18:39;;;;;;;23.63;16.65;;;;;;;;;;5036959;28;20030;-71
2022/10/28 00:21:07;;;;;;;23.58;16.52;;;;;;;;;;5037223;28;20032;-72
2022/10/28 00:23:33;;;;;;;20.77;16.55;;;;;;;;;;5037430;28;20037;-72
2022/10/28 00:26:07;;;;;;;23.50;16.88;;;;;;;;;;5037149;28;20031;-73
2022/10/28 00:28:33;;;;;;;26.52;17.50;;;;;;;;;;5019641;28;20404;-73
2022/10/28 00:31:02;;;;;;;23.67;17.27;;;;;;;;;;5036854;28;20021;-72
2022/10/28 00:33:27;;;;;;;22.30;16.65;;;;;;;;;;5036784;28;20543;-71
2022/10/28 00:35:53;;;;;;;22.38;15.98;;;;;;;;;;5036792;28;20041;-72
2022/10/28 00:38:18;;;;;;;20.45;15.18;;;;;;;;;;5036888;28;20034;-71
2022/10/28 00:40:43;;;;;;;22.77;16.15;;;;;;;;;;5036314;28;20029;-72
2022/10/28 00:43:10;;;;;;;20.30;15.60;;;;;;;;;;5036782;28;20026;-76
2022/10/28 00:45:35;;;;;;;19.80;15.82;;;;;;;;;;5036710;28;20029;-76
2022/10/28 00:48:01;;;;;;;20.33;15.88;;;;;;;;;;5018975;28;20033;-76
2022/10/28 00:50:33;;;;;;;18.63;15.00;;;;;;;;;;5036265;28;20120;-75
2022/10/28 00:53:28;;;;;;;19.20;15.43;;;;;;;;;;5035855;28;20025;-76
2022/10/28 00:55:54;;;;;;;22.70;16.25;;;;;;;;;;5015345;28;20082;-76
2022/10/28 00:58:21;;;;;;;19.92;15.52;;;;;;;;;;5036689;28;20048;-75
2022/10/28 01:00:46;;;;;;;21.67;16.15;;;;;;;;;;5036318;28;20036;-76
2022/10/28 01:03:12;;;;;;;19.92;15.68;;;;;;;;;;5036078;28;20499;-75
2022/10/28 01:05:39;;;;;;;22.80;17.15;;;;;;;;;;5036008;28;20397;-75
2022/10/28 01:08:05;;;;;;;24.50;16.33;;;;;;;;;;5036317;28;20029;-75
2022/10/28 01:10:45;;;;;;;22.95;16.70;;;;;;;;;;5036565;28;20025;-76
2022/10/28 01:13:11;;;;;;;21.40;15.68;;;;;;;;;;5036156;28;20473;-75
2022/10/28 01:15:54;;;;;;;19.23;15.70;;;;;;;;;;5035978;28;20041;-75
2022/10/28 01:18:31;;;;;;;21.38;15.43;;;;;;;;;;5036110;28;20017;-75
2022/10/28 01:21:06;;;;;;;19.50;15.40;;;;;;;;;;5035795;28;20033;-74
2022/10/28 01:23:31;;;;;;;21.20;14.82;;;;;;;;;;5018549;28;20036;-75
2022/10/28 01:26:04;;;;;;;19.70;15.52;;;;;;;;;;5036130;28;20021;-77
2022/10/28 01:28:41;;;;;;;18.15;15.30;;;;;;;;;;5018464;28;20044;-76
2022/10/28 01:31:06;;;;;;;19.30;14.70;;;;;;;;;;5035482;28;20033;-77
2022/10/28 01:33:31;;;;;;;19.93;14.40;;;;;;;;;;5018404;28;20045;-77
2022/10/28 01:36:08;;;;;;;18.48;13.95;;;;;;;;;;5035764;28;20378;-77
2022/10/28 01:38:53;;;;;;;16.63;13.68;;;;;;;;;;5018124;28;20033;-75
2022/10/28 01:41:18;;;;;;;20.50;14.48;;;;;;;;;;5034706;28;20073;-77
2022/10/28 01:43:47;;;;;;;19.60;14.80;;;;;;;;;;5035383;28;20115;-76
2022/10/28 01:46:24;;;;;;;19.75;13.85;;;;;;;;;;5035364;28;20272;-76
2022/10/28 01:48:58;;;;;;;16.90;13.48;;;;;;;;;;5035465;28;20039;-76
2022/10/28 01:51:49;;;;;;;20.63;14.15;;;;;;;;;;5035068;28;20054;-76
2022/10/28 01:54:17;;;;;;;23.42;14.05;;;;;;;;;;5012672;28;20053;-75
2022/10/28 01:56:45;;;;;;;21.05;13.75;;;;;;;;;;5035000;28;20018;-75
2022/10/28 01:59:13;;;;;;;17.27;13.73;;;;;;;;;;5035069;28;20116;-75
2022/10/28 02:01:39;;;;;;;14.77;12.18;;;;;;;;;;5035182;28;20024;-75
2022/10/28 02:04:04;;;;;;;14.57;11.70;;;;;;;;;;5034512;28;20037;-75
2022/10/28 02:06:30;;;;;;;11.25;10.15;;;;;;;;;;5034429;28;20029;-75
2022/10/28 02:09:10;;;;;;;15.27;11.30;;;;;;;;;;5035087;28;20053;-75
2022/10/28 02:11:54;;;;;;;13.65;11.15;;;;;;;;;;5017236;28;20060;-76
2022/10/28 02:14:37;;;;;;;11.90;10.60;;;;;;;;;;5017687;28;20095;-76
2022/10/28 02:17:16;;;;;;;17.17;12.57;;;;;;;;;;5017084;28;20036;-77
2022/10/28 02:19:52;;;;;;;15.50;11.98;;;;;;;;;;5033964;28;20420;-75
2022/10/28 02:22:31;;;;;;;15.48;12.00;;;;;;;;;;5016076;28;20025;-76
2022/10/28 02:25:12;;;;;;;14.35;11.57;;;;;;;;;;5033739;28;20026;-74
2022/10/28 02:27:49;;;;;;;17.00;12.50;;;;;;;;;;5016029;28;20043;-73
2022/10/28 02:30:23;;;;;;;14.52;11.63;;;;;;;;;;5033508;28;20087;-73
2022/10/28 02:32:54;;;;;;;16.77;12.38;;;;;;;;;;5033001;28;20507;-72
2022/10/28 02:35:23;;;;;;;14.88;12.02;;;;;;;;;;5033693;28;20044;-73
2022/10/28 02:37:50;;;;;;;16.30;12.52;;;;;;;;;;5034588;28;20092;-72
2022/10/28 02:40:21;;;;;;;22.00;13.60;;;;;;;;;;5016566;28;20033;-71
2022/10/28 02:42:48;;;;;;;17.48;13.45;;;;;;;;;;5017170;28;20021;-73
2022/10/28 02:45:16;;;;;;;15.65;12.27;;;;;;;;;;5016810;28;20489;-72
2022/10/28 02:47:43;;;;;;;17.92;11.90;;;;;;;;;;5034171;28;20433;-71
2022/10/28 02:50:11;;;;;;;21.73;15.15;;;;;;;;;;5034514;28;20026;-72
2022/10/28 02:52:38;;;;;;;25.50;16.08;;;;;;;;;;5034206;28;20028;-71
2022/10/28 02:55:04;;;;;;;26.33;16.35;;;;;;;;;;5034083;28;20053;-73
2022/10/28 02:57:34;;;;;;;34.15;21.35;;;;;;;;;;5034434;28;20025;-73
2022/10/28 03:00:26;;;;;;;30.23;21.00;;;;;;;;;;5034385;28;20388;-73
2022/10/28 03:02:52;;;;;;;30.15;18.00;;;;;;;;;;5030021;28;20038;-71
2022/10/28 03:05:17;;;;;;;28.52;17.65;;;;;;;;;;5034273;28;20022;-71
2022/10/28 03:07:43;;;;;;;24.58;16.48;;;;;;;;;;5034140;28;20025;-72
2022/10/28 03:10:08;;;;;;;25.90;14.80;;;;;;;;;;5016486;28;20090;-73
2022/10/28 03:12:34;;;;;;;22.05;16.52;;;;;;;;;;5033676;28;20045;-73
2022/10/28 03:15:00;;;;;;;21.13;15.63;;;;;;;;;;5034148;28;20017;-73
2022/10/28 03:17:25;;;;;;;24.75;16.13;;;;;;;;;;5033519;28;20025;-72
2022/10/28 03:19:51;;;;;;;22.27;15.07;;;;;;;;;;5033591;28;20377;-72
2022/10/28 03:22:16;;;;;;;24.38;15.55;;;;;;;;;;5034002;28;20029;-72
2022/10/28 03:24:42;;;;;;;27.35;16.73;;;;;;;;;;5015946;28;20029;-72
2022/10/28 03:27:07;;;;;;;23.77;14.90;;;;;;;;;;5033833;28;20040;-72
2022/10/28 03:29:32;;;;;;;24.77;15.45;;;;;;;;;;5033626;28;20527;-72
2022/10/28 03:31:58;;;;;;;22.60;14.30;;;;;;;;;;5033145;28;20044;-73
2022/10/28 03:34:23;;;;;;;20.60;15.02;;;;;;;;;;5034124;28;20347;-73
2022/10/28 03:36:49;;;;;;;19.52;15.10;;;;;;;;;;5034098;28;20051;-72
2022/10/28 03:39:14;;;;;;;26.45;15.90;;;;;;;;;;5016456;28;20021;-72
2022/10/28 03:41:40;;;;;;;20.08;14.95;;;;;;;;;;5033613;28;20025;-72
2022/10/28 03:44:05;;;;;;;25.17;15.10;;;;;;;;;;5033499;28;20373;-71
2022/10/28 03:46:30;;;;;;;26.80;16.52;;;;;;;;;;5033702;28;20037;-72
2022/10/28 03:48:56;;;;;;;23.40;16.27;;;;;;;;;;5033204;28;20026;-73
2022/10/28 03:51:21;;;;;;;24.30;17.25;;;;;;;;;;5033550;28;20040;-72
2022/10/28 03:53:47;;;;;;;23.73;16.40;;;;;;;;;;5015994;28;20025;-73
2022/10/28 03:56:12;;;;;;;29.27;18.52;;;;;;;;;;5033516;28;20022;-72
2022/10/28 03:58:37;;;;;;;24.52;17.15;;;;;;;;;;5033603;28;20009;-71
2022/10/28 04:01:04;;;;;;;23.75;16.15;;;;;;;;;;5033200;28;20064;-71
2022/10/28 04:03:29;;;;;;;25.15;15.45;;;;;;;;;;5015591;28;20028;-72
2022/10/28 04:05:54;;;;;;;21.20;16.15;;;;;;;;;;5015709;28;20038;-71
2022/10/28 04:08:20;;;;;;;18.80;14.00;;;;;;;;;;5033534;28;20064;-72
2022/10/28 04:10:46;;;;;;;17.80;13.60;;;;;;;;;;5033257;28;20091;-72
2022/10/28 04:13:11;;;;;;;18.35;13.70;;;;;;;;;;5033583;28;20026;-71
2022/10/28 04:15:37;;;;;;;15.60;12.75;;;;;;;;;;5015846;28;20082;-71
2022/10/28 04:18:02;;;;;;;15.68;13.02;;;;;;;;;;5033873;28;20423;-71
2022/10/28 04:20:28;;;;;;;13.90;12.45;;;;;;;;;;5033383;28;20507;-72
2022/10/28 04:22:53;;;;;;;14.90;12.23;;;;;;;;;;5033395;28;20100;-72
2022/10/28 04:25:19;;;;;;;15.63;12.30;;;;;;;;;;5015732;28;20393;-72
2022/10/28 04:27:44;;;;;;;18.27;13.90;;;;;;;;;;5033503;28;20017;-75
2022/10/28 04:30:13;;;;;;;15.98;13.27;;;;;;;;;;5037082;28;20396;-76
2022/10/28 04:32:39;;;;;;;16.80;12.63;;;;;;;;;;5001983;28;20144;-75
2022/10/28 04:35:04;;;;;;;20.90;13.27;;;;;;;;;;5036622;28;20385;-75
2022/10/28 04:37:30;;;;;;;18.17;14.27;;;;;;;;;;5036804;28;20036;-75
2022/10/28 04:39:55;;;;;;;19.77;14.63;;;;;;;;;;5036372;28;20025;-76
2022/10/28 04:42:22;;;;;;;19.85;15.43;;;;;;;;;;5036323;28;20025;-76
2022/10/28 04:44:47;;;;;;;18.42;15.48;;;;;;;;;;5036404;28;20038;-77
2022/10/28 04:47:13;;;;;;;19.00;14.90;;;;;;;;;;5018883;28;20056;-79
2022/10/28 04:49:39;;;;;;;19.30;15.18;;;;;;;;;;5017721;28;20030;-78
2022/10/28 04:52:11;;;;;;;16.98;14.48;;;;;;;;;;5035959;28;20109;-78
2022/10/28 04:54:37;;;;;;;18.77;14.02;;;;;;;;;;5018328;28;20029;-77
2022/10/28 04:57:02;;;;;;;17.33;13.05;;;;;;;;;;5035788;28;20377;-77
2022/10/28 04:59:27;;;;;;;19.85;15.77;;;;;;;;;;5036369;28;20025;-80
2022/10/28 05:01:53;;;;;;;21.40;16.40;;;;;;;;;;5035302;28;20051;-80
2022/10/28 05:04:18;;;;;;;22.40;17.13;;;;;;;;;;5034893;28;20025;-80
2022/10/28 05:06:43;;;;;;;23.75;17.58;;;;;;;;;;5017259;28;20025;-79
2022/10/28 05:09:09;;;;;;;25.27;16.88;;;;;;;;;;5017186;28;20032;-79
2022/10/28 05:11:34;;;;;;;22.38;16.17;;;;;;;;;;5034841;28;20017;-78
2022/10/28 05:13:59;;;;;;;22.50;16.85;;;;;;;;;;5034857;28;20055;-78
2022/10/28 05:16:25;;;;;;;24.10;16.63;;;;;;;;;;5017000;28;20425;-77
2022/10/28 05:18:50;;;;;;;22.67;16.80;;;;;;;;;;5017047;28;20036;-77
2022/10/28 05:21:15;;;;;;;20.42;16.02;;;;;;;;;;5016629;28;20498;-77
2022/10/28 05:23:41;;;;;;;21.98;15.75;;;;;;;;;;5034577;28;20106;-79
2022/10/28 05:26:06;;;;;;;19.95;15.63;;;;;;;;;;5034636;28;20105;-78
2022/10/28 05:28:32;;;;;;;21.58;16.25;;;;;;;;;;5034214;28;20041;-77
2022/10/28 05:30:57;;;;;;;19.98;16.33;;;;;;;;;;5034488;28;20366;-77
2022/10/28 05:33:23;;;;;;;21.38;16.02;;;;;;;;;;5016609;28;20045;-76
2022/10/28 05:35:48;;;;;;;26.08;17.08;;;;;;;;;;5035371;28;20033;-77
2022/10/28 05:38:14;;;;;;;22.48;16.20;;;;;;;;;;5017687;28;20112;-77
2022/10/28 05:40:39;;;;;;;24.38;16.00;;;;;;;;;;5035399;28;20088;-79
2022/10/28 05:43:05;;;;;;;24.50;16.55;;;;;;;;;;5035027;28;20424;-79
2022/10/28 05:45:30;;;;;;;27.10;17.42;;;;;;;;;;5035171;28;20564;-79
2022/10/28 05:47:56;;;;;;;28.13;17.55;;;;;;;;;;5035182;28;20032;-78
2022/10/28 05:50:21;;;;;;;26.23;16.02;;;;;;;;;;5035157;28;20021;-79
2022/10/28 05:52:51;;;;;;;22.80;15.95;;;;;;;;;;5035100;28;20087;-78
2022/10/28 05:55:18;;;;;;;24.77;15.75;;;;;;;;;;5035005;28;20080;-79
2022/10/28 05:57:44;;;;;;;25.90;16.95;;;;;;;;;;5017267;28;20017;-79
2022/10/28 06:00:09;;;;;;;24.35;15.93;;;;;;;;;;5035038;28;20017;-77
2022/10/28 06:02:37;;;;;;;24.90;16.45;;;;;;;;;;5035179;28;20107;-78
2022/10/28 06:05:03;;;;;;;25.95;16.15;;;;;;;;;;5035054;28;20452;-78
2022/10/28 06:07:29;;;;;;;30.95;17.25;;;;;;;;;;5034906;28;20026;-79
2022/10/28 06:09:54;;;;;;;28.77;16.75;;;;;;;;;;5034931;28;20075;-78
2022/10/28 06:12:19;;;;;;;26.20;16.08;;;;;;;;;;5017114;28;20540;-78
2022/10/28 06:14:45;;;;;;;21.52;14.50;;;;;;;;;;5034651;28;20025;-78
2022/10/28 06:17:10;;;;;;;25.20;16.08;;;;;;;;;;5034609;28;20473;-78
2022/10/28 06:19:35;;;;;;;22.33;15.05;;;;;;;;;;5016887;28;20009;-80
2022/10/28 06:22:01;;;;;;;21.13;14.48;;;;;;;;;;5034554;28;20040;-80
2022/10/28 06:24:26;;;;;;;21.85;14.40;;;;;;;;;;5034396;28;20025;-79
2022/10/28 06:26:53;;;;;;;19.13;14.00;;;;;;;;;;5034515;28;20033;-81
2022/10/28 06:29:19;;;;;;;18.73;14.55;;;;;;;;;;5016716;28;20013;-80
2022/10/28 06:31:44;;;;;;;20.08;15.20;;;;;;;;;;5016786;28;20484;-78
2022/10/28 06:34:10;;;;;;;23.40;16.45;;;;;;;;;;5034149;28;20073;-81
2022/10/28 06:36:37;;;;;;;24.42;16.35;;;;;;;;;;5034280;28;20083;-74
2022/10/28 06:39:02;;;;;;;21.85;16.02;;;;;;;;;;5016490;28;20021;-75
2022/10/28 06:41:27;;;;;;;24.27;16.20;;;;;;;;;;5034182;28;20389;-74
2022/10/28 06:43:52;;;;;;;20.15;15.82;;;;;;;;;;5016561;28;20359;-75
2022/10/28 06:46:18;;;;;;;22.25;15.77;;;;;;;;;;5034129;28;20060;-74
2022/10/28 06:48:43;;;;;;;23.45;16.17;;;;;;;;;;5034137;28;20029;-74
2022/10/28 06:51:10;;;;;;;23.50;17.20;;;;;;;;;;5033834;28;20072;-74
2022/10/28 06:53:35;;;;;;;26.63;16.85;;;;;;;;;;5016647;28;20439;-75
2022/10/28 06:56:01;;;;;;;26.35;16.95;;;;;;;;;;5033927;28;20128;-74
2022/10/28 06:58:26;;;;;;;23.80;16.60;;;;;;;;;;5016213;28;20022;-75
2022/10/28 07:00:53;;;;;;;24.92;16.08;;;;;;;;;;5033927;28;20469;-74
2022/10/28 07:03:18;;;;;;;23.65;16.33;;;;;;;;;;5033848;28;20458;-74
2022/10/28 07:05:45;;;;;;;25.58;16.50;;;;;;;;;;5033839;28;20048;-75
2022/10/28 07:08:11;;;;;;;23.48;16.05;;;;;;;;;;5016196;28;20095;-75
2022/10/28 07:10:36;;;;;;;25.63;16.58;;;;;;;;;;5016010;28;20489;-75
2022/10/28 07:13:01;;;;;;;31.00;18.63;;;;;;;;;;5033734;28;20076;-75
2022/10/28 07:15:27;;;;;;;27.70;18.83;;;;;;;;;;5015855;28;20495;-74
2022/10/28 07:17:56;;;;;;;34.47;20.85;;;;;;;;;;5033838;28;20018;-75
2022/10/28 07:20:22;;;;;;;36.65;22.17;;;;;;;;;;5033821;28;20029;-74
2022/10/28 07:22:53;;;;;;;32.80;21.85;;;;;;;;;;5033700;28;20014;-75
2022/10/28 07:25:19;;;;;;;35.42;22.05;;;;;;;;;;5016114;28;20048;-75
2022/10/28 07:27:44;;;;;;;33.60;20.92;;;;;;;;;;5033685;28;20021;-74
2022/10/28 07:30:10;;;;;;;26.98;18.40;;;;;;;;;;5015764;28;20481;-75
2022/10/28 07:32:35;;;;;;;23.17;16.90;;;;;;;;;;5033334;28;20063;-75
2022/10/28 07:35:00;;;;;;;17.73;13.73;;;;;;;;;;5015656;28;20496;-74
2022/10/28 07:37:26;;;;;;;18.27;13.15;;;;;;;;;;5033389;28;20026;-75
2022/10/28 07:39:51;;;;;;;14.02;11.63;;;;;;;;;;5033413;28;20029;-80
2022/10/28 07:42:16;;;;;;;13.27;10.68;;;;;;;;;;5015734;28;20014;-80
2022/10/28 07:44:42;;;;;;;13.02;10.18;;;;;;;;;;5033337;28;20469;-81
2022/10/28 07:47:07;;;;;;;11.05;9.93;;;;;;;;;;5033369;28;20033;-80
2022/10/28 07:49:33;;;;;;;12.98;10.48;;;;;;;;;;5033388;28;20099;-79
2022/10/28 07:51:58;;;;;;;16.08;10.93;;;;;;;;;;5033348;28;20030;-80
2022/10/28 07:54:23;;;;;;;14.13;10.70;;;;;;;;;;5033280;28;20549;-81
2022/10/28 07:56:49;;;;;;;12.30;9.93;;;;;;;;;;5015504;28;20461;-80
2022/10/28 07:59:14;;;;;;;13.82;10.13;;;;;;;;;;5015653;28;20041;-80
2022/10/28 08:01:39;;;;;;;12.73;10.95;;;;;;;;;;5015477;28;20021;-80
2022/10/28 08:04:05;;;;;;;16.02;10.82;;;;;;;;;;5035824;28;20036;-81
2022/10/28 08:06:30;;;;;;;11.23;9.73;;;;;;;;;;5003017;28;20025;-81
2022/10/28 08:08:56;;;;;;;13.05;11.10;;;;;;;;;;5019314;28;20037;-80
2022/10/28 08:11:22;;;;;;;13.55;10.95;;;;;;;;;;5037006;28;20124;-80
2022/10/28 08:13:48;;;;;;;13.95;11.07;;;;;;;;;;5036989;28;20045;-81
2022/10/28 08:18:57;;;;;;;15.40;11.65;;;;;;;;;;5023835;22;20050;-74
2022/10/28 08:21:23;;;;;;;16.08;11.88;;;;;;;;;;4999764;28;20099;-74
2022/10/28 08:23:48;;;;;;;15.85;10.93;;;;;;;;;;4999403;28;20029;-74
2022/10/28 08:26:14;;;;;;;13.60;10.95;;;;;;;;;;5017130;28;20030;-74
2022/10/28 08:28:40;;;;;;;15.98;11.00;;;;;;;;;;5016934;28;20032;-75
2022/10/28 08:31:07;;;;;;;15.48;11.52;;;;;;;;;;5016911;28;20030;-74
2022/10/28 08:33:33;;;;;;;13.73;11.18;;;;;;;;;;5016835;28;20037;-74
2022/10/28 08:35:59;;;;;;;13.88;11.07;;;;;;;;;;5032007;28;20067;-74
2022/10/28 08:38:24;;;;;;;13.82;10.77;;;;;;;;;;4999252;28;20025;-74
2022/10/28 08:40:58;;;;;;;14.05;10.98;;;;;;;;;;4999333;28;20037;-81
2022/10/28 08:43:44;;;;;;;13.77;9.65;;;;;;;;;;4999264;28;20109;-81
2022/10/28 08:46:19;;;;;;;17.30;11.52;;;;;;;;;;4986241;28;20359;-80
2022/10/28 08:48:45;;;;;;;14.65;11.43;;;;;;;;;;5031797;28;20541;-81
2022/10/28 08:51:15;;;;;;;13.57;11.05;;;;;;;;;;5016596;28;20094;-81
2022/10/28 08:53:46;;;;;;;12.60;9.57;;;;;;;;;;5016552;28;20462;-78
2022/10/28 08:56:14;;;;;;;14.38;10.55;;;;;;;;;;5016357;28;20100;-81
2022/10/28 08:58:41;;;;;;;12.50;9.93;;;;;;;;;;5016548;28;20088;-82
2022/10/28 09:01:12;;;;;;;13.23;8.75;;;;;;;;;;4998894;28;20057;-80
2022/10/28 09:03:40;;;;;;;14.45;10.10;;;;;;;;;;5016299;28;20510;-82
2022/10/28 09:06:07;;;;;;;13.00;10.02;;;;;;;;;;5016234;28;20022;-81
2022/10/28 09:08:35;;;;;;;13.05;9.05;;;;;;;;;;4998654;28;20096;-81
2022/10/28 09:11:09;;;;;;;12.73;9.93;;;;;;;;;;5016163;28;20030;-82
2022/10/28 09:13:34;;;;;;;12.23;9.68;;;;;;;;;;5015619;28;20091;-81
2022/10/28 09:16:03;;;;;;;13.52;9.98;;;;;;;;;;4998595;28;20100;-82
2022/10/28 09:18:34;;;;;;;14.07;9.30;;;;;;;;;;5015955;28;20390;-82
2022/10/28 09:21:03;;;;;;;12.15;8.55;;;;;;;;;;5015990;28;20030;-81
2022/10/28 09:23:30;;;;;;;11.63;8.45;;;;;;;;;;5015996;28;20454;-82
2022/10/28 09:26:05;;;;;;;12.82;9.75;;;;;;;;;;5015976;28;20176;-74
2022/10/28 09:28:49;;;;;;;11.02;8.38;;;;;;;;;;4998503;28;20091;-74
2022/10/28 09:31:21;;;;;;;12.45;8.98;;;;;;;;;;4998165;28;20033;-74
2022/10/28 09:33:51;;;;;;;11.60;8.75;;;;;;;;;;5015663;28;20037;-75
2022/10/28 09:36:20;;;;;;;12.95;9.18;;;;;;;;;;5015581;28;20037;-75
2022/10/28 09:38:45;;;;;;;13.10;9.07;;;;;;;;;;5014806;28;20053;-74
2022/10/28 09:41:17;;;;;;;10.00;7.03;;;;;;;;;;4998283;28;20056;-74
2022/10/28 09:43:52;;;;;;;9.07;6.95;;;;;;;;;;5015633;28;20036;-74
2022/10/28 09:46:18;;;;;;;11.15;7.80;;;;;;;;;;5015657;28;20036;-74
2022/10/28 09:48:47;;;;;;;9.88;6.32;;;;;;;;;;5015486;28;20026;-80
2022/10/28 09:51:19;;;;;;;10.40;6.53;;;;;;;;;;4998231;28;20034;-81
2022/10/28 09:53:50;;;;;;;6.88;5.05;;;;;;;;;;5015385;28;20287;-81
2022/10/28 09:56:16;;;;;;;11.38;7.38;;;;;;;;;;4997783;28;20540;-81
2022/10/28 09:58:44;;;;;;;9.13;6.30;;;;;;;;;;4981594;28;20161;-81
2022/10/28 10:01:10;;;;;;;11.00;5.38;;;;;;;;;;5015247;28;20037;-81
2022/10/28 10:03:38;;;;;;;9.35;6.50;;;;;;;;;;5015165;28;20374;-81
2022/10/28 10:06:11;;;;;;;8.88;6.07;;;;;;;;;;5015151;28;20037;-81
2022/10/28 10:08:37;;;;;;;8.25;5.75;;;;;;;;;;4997457;28;20112;-82
2022/10/28 10:11:04;;;;;;;7.82;5.18;;;;;;;;;;4997429;28;20481;-78
2022/10/28 10:13:35;;;;;;;8.30;6.07;;;;;;;;;;5015001;28;20062;-80
2022/10/28 10:16:03;;;;;;;9.07;5.50;;;;;;;;;;4997447;28;20030;-80
2022/10/28 10:18:31;;;;;;;7.78;5.93;;;;;;;;;;5014743;28;20060;-81
2022/10/28 10:20:57;;;;;;;9.95;5.22;;;;;;;;;;4997358;28;20030;-78
2022/10/28 10:23:28;;;;;;;7.00;5.22;;;;;;;;;;5014861;28;20033;-81
2022/10/28 10:25:54;;;;;;;6.65;4.88;;;;;;;;;;5014060;28;20041;-78
2022/10/28 10:28:20;;;;;;;6.28;4.72;;;;;;;;;;4997213;28;20033;-78
2022/10/28 10:30:49;;;;;;;6.63;4.43;;;;;;;;;;5014793;28;20116;-77
2022/10/28 10:33:23;;;;;;;5.90;4.33;;;;;;;;;;5014765;28;20057;-80
2022/10/28 10:35:54;;;;;;;7.85;3.10;;;;;;;;;;4997117;28;20038;-82
2022/10/28 10:38:20;;;;;;;6.13;4.85;;;;;;;;;;4997208;28;20386;-80
2022/10/28 10:40:49;;;;;;;5.18;4.78;;;;;;;;;;5014502;28;20028;-80
2022/10/28 10:43:21;;;;;;;5.55;4.20;;;;;;;;;;5029706;28;20474;-80
2022/10/28 10:46:26;;;;;;;4.97;4.47;;;;;;;;;;5029581;28;20033;-79
2022/10/28 10:49:21;;;;;;;4.47;3.70;;;;;;;;;;4954043;29;20046;-81
2022/10/28 10:51:53;;;;;;;6.90;4.13;;;;;;;;;;4925941;29;20046;-80
2022/10/28 10:54:19;;;;;;;5.20;4.10;;;;;;;;;;4997339;28;20066;-79
2022/10/28 10:56:44;;;;;;;6.03;4.25;;;;;;;;;;5014192;28;20422;-80
2022/10/28 10:59:27;;;;;;;5.03;3.90;;;;;;;;;;5014314;28;20030;-77
2022/10/28 11:01:52;;;;;;;5.63;4.10;;;;;;;;;;5029368;28;20460;-81
2022/10/28 11:04:19;;;;;;;5.80;4.13;;;;;;;;;;5014124;28;20105;-78
2022/10/28 11:06:48;;;;;;;5.75;3.70;;;;;;;;;;5029270;28;20029;-79
2022/10/28 11:09:25;;;;;;;5.53;3.33;;;;;;;;;;5014195;28;20022;-80
2022/10/28 11:11:52;;;;;;;3.40;3.08;;;;;;;;;;5014222;28;20032;-79
2022/10/28 11:14:31;;;;;;;5.57;3.42;;;;;;;;;;5013837;23;20049;-79
2022/10/28 11:16:57;;;;;;;3.40;3.10;;;;;;;;;;5014027;28;20525;-80
2022/10/28 11:19:27;;;;;;;5.43;3.08;;;;;;;;;;5014028;28;20104;-80
2022/10/28 11:22:12;;;;;;;3.30;3.00;;;;;;;;;;5013979;28;20026;-80
2022/10/28 11:24:43;;;;;;;3.65;3.35;;;;;;;;;;5013888;28;20032;-78
2022/10/28 11:27:09;;;;;;;3.95;3.58;;;;;;;;;;5045772;28;20025;-79
2022/10/28 11:29:34;;;;;;;5.00;3.58;;;;;;;;;;5013889;28;20462;-80
2022/10/28 11:32:14;;;;;;;4.30;3.75;;;;;;;;;;5014093;28;20076;-78
2022/10/28 11:34:58;;;;;;;5.25;3.22;;;;;;;;;;5013881;28;20021;-81
2022/10/28 11:37:43;;;;;;;4.95;4.32;;;;;;;;;;5016357;28;20030;-79
2022/10/28 11:40:18;;;;;;;4.57;4.05;;;;;;;;;;5052156;28;20029;-79
2022/10/28 11:42:56;;;;;;;5.20;4.05;;;;;;;;;;5020350;28;20492;-80
2022/10/28 11:45:32;;;;;;;5.10;4.07;;;;;;;;;;5020458;28;20478;-79
2022/10/28 11:48:16;;;;;;;5.47;3.45;;;;;;;;;;5035359;28;20096;-79
2022/10/28 11:50:44;;;;;;;4.43;2.88;;;;;;;;;;5020288;28;20152;-78
2022/10/28 11:53:28;;;;;;;4.45;3.15;;;;;;;;;;5052111;28;20026;-80
2022/10/28 11:56:09;;;;;;;3.95;2.97;;;;;;;;;;5020211;28;20414;-78
2022/10/28 11:58:49;;;;;;;3.35;3.05;;;;;;;;;;5020230;28;20022;-80
2022/10/28 12:01:15;;;;;;;2.95;2.75;;;;;;;;;;5051949;28;20030;-80
2022/10/28 12:03:52;;;;;;;3.58;3.28;;;;;;;;;;5020054;28;20388;-80
2022/10/28 12:06:18;;;;;;;4.63;3.30;;;;;;;;;;5019515;28;20536;-80
2022/10/28 12:08:50;;;;;;;3.15;2.90;;;;;;;;;;5019004;28;20061;-80
2022/10/28 12:11:31;;;;;;;3.75;3.00;;;;;;;;;;5019465;28;20041;-76
2022/10/28 12:14:14;;;;;;;4.03;2.97;;;;;;;;;;5053442;28;20064;-72
2022/10/28 12:16:53;;;;;;;3.58;3.17;;;;;;;;;;5039106;28;20046;-73
2022/10/28 12:19:19;;;;;;;3.53;3.17;;;;;;;;;;5021064;28;20072;-73
2022/10/28 12:21:44;;;;;;;4.40;2.75;;;;;;;;;;5038817;28;20112;-73
2022/10/28 12:24:13;;;;;;;5.00;2.97;;;;;;;;;;5038524;28;20164;-74
2022/10/28 12:26:41;;;;;;;4.28;3.15;;;;;;;;;;5038560;28;20025;-73
2022/10/28 12:29:20;;;;;;;3.75;3.45;;;;;;;;;;5038533;28;20030;-72
2022/10/28 12:32:05;;;;;;;4.85;3.63;;;;;;;;;;5038537;28;20424;-73
2022/10/28 12:34:37;;;;;;;6.30;3.83;;;;;;;;;;5037640;28;20034;-73
2022/10/28 12:37:35;;;;;;;7.63;4.18;;;;;;;;;;5038771;28;20042;-74
2022/10/28 12:40:04;;;;;;;6.90;4.05;;;;;;;;;;4987611;28;20120;-75
2022/10/28 12:42:35;;;;;;;8.03;4.23;;;;;;;;;;5038143;28;20029;-73
2022/10/28 12:45:03;;;;;;;7.70;4.05;;;;;;;;;;5004550;28;20156;-74
2022/10/28 12:47:53;;;;;;;8.82;4.43;;;;;;;;;;5037930;28;20048;-74
2022/10/28 12:50:33;;;;;;;5.60;4.40;;;;;;;;;;5016656;28;20378;-73
2022/10/28 12:53:01;;;;;;;9.63;4.78;;;;;;;;;;5035222;28;20033;-74
2022/10/28 12:55:45;;;;;;;8.93;4.00;;;;;;;;;;5017263;28;20489;-74
2022/10/28 12:58:16;;;;;;;7.63;4.10;;;;;;;;;;5035150;28;20098;-74
2022/10/28 13:00:43;;;;;;;8.88;4.22;;;;;;;;;;5017047;28;20052;-74
2022/10/28 13:03:13;;;;;;;13.00;4.40;;;;;;;;;;5035045;28;20017;-73
2022/10/28 13:05:41;;;;;;;8.85;4.25;;;;;;;;;;5017131;28;20025;-73
2022/10/28 13:08:25;;;;;;;6.97;3.95;;;;;;;;;;5034844;28;20159;-73
2022/10/28 13:11:16;;;;;;;6.65;4.20;;;;;;;;;;5050264;28;20470;-74
2022/10/28 13:13:48;;;;;;;9.57;4.00;;;;;;;;;;5034512;28;20032;-75
2022/10/28 13:16:24;;;;;;;9.52;4.65;;;;;;;;;;5034677;28;20080;-73
2022/10/28 13:18:53;;;;;;;8.52;4.03;;;;;;;;;;5017034;28;20030;-74
2022/10/28 13:21:28;;;;;;;7.88;4.35;;;;;;;;;;5017014;28;20017;-74
2022/10/28 13:23:58;;;;;;;7.03;4.57;;;;;;;;;;5016901;28;20028;-74
2022/10/28 13:26:23;;;;;;;;;;;;;;;;;;5035060;28;20116;-72
2022/10/28 13:28:51;;;;;;;7.43;5.03;;;;;;;;;;5035548;28;19994;-71
2022/10/28 13:31:17;;;;;;;6.65;4.32;;;;;;;;;;5035364;28;20052;-72
2022/10/28 13:33:47;;;;;;;7.13;4.07;;;;;;;;;;5034662;28;20512;-73
2022/10/28 13:36:17;;;;;;;12.07;4.28;;;;;;;;;;5032837;28;20057;-73
2022/10/28 13:38:48;;;;;;;7.90;4.45;;;;;;;;;;5034042;28;20029;-72
2022/10/28 13:41:25;;;;;;;9.20;3.85;;;;;;;;;;5017039;28;20087;-72
2022/10/28 13:43:52;;;;;;;6.90;4.57;;;;;;;;;;5034682;28;20124;-72
2022/10/28 13:46:36;;;;;;;8.10;4.35;;;;;;;;;;5034610;28;20029;-73
2022/10/28 13:49:20;;;;;;;6.60;4.03;;;;;;;;;;5048983;28;20033;-72
2022/10/28 13:51:46;;;;;;;7.85;4.07;;;;;;;;;;5015224;28;20068;-73
2022/10/28 13:54:22;;;;;;;10.82;4.13;;;;;;;;;;5033065;28;20065;-73
2022/10/28 13:56:48;;;;;;;8.57;4.35;;;;;;;;;;5033261;28;20108;-73
2022/10/28 13:59:13;;;;;;;7.47;3.90;;;;;;;;;;5033319;28;20147;-73
2022/10/28 14:01:51;;;;;;;7.20;3.97;;;;;;;;;;5014591;28;20065;-73
2022/10/28 14:04:20;;;;;;;5.80;3.92;;;;;;;;;;5033252;28;20029;-72
2022/10/28 14:06:45;;;;;;;10.18;4.10;;;;;;;;;;5033541;28;20469;-72
2022/10/28 14:09:26;;;;;;;9.93;4.15;;;;;;;;;;5016021;28;20045;-73
2022/10/28 14:12:03;;;;;;;6.07;3.80;;;;;;;;;;5034782;28;20032;-71
2022/10/28 14:14:29;;;;;;;7.65;4.45;;;;;;;;;;5034610;28;20045;-73
2022/10/28 14:16:55;;;;;;;7.68;4.22;;;;;;;;;;5017009;28;20040;-72
2022/10/28 14:19:21;;;;;;;8.07;4.07;;;;;;;;;;5017125;28;20037;-73
2022/10/28 14:21:50;;;;;;;5.93;4.10;;;;;;;;;;5034622;28;20032;-76
2022/10/28 14:24:31;;;;;;;5.78;3.88;;;;;;;;;;5044020;22;20093;-72
2022/10/28 14:27:17;;;;;;;5.55;3.88;;;;;;;;;;5017075;28;20118;-73
2022/10/28 14:29:54;;;;;;;7.20;4.03;;;;;;;;;;5016640;28;20041;-74
2022/10/28 14:32:32;;;;;;;6.75;4.07;;;;;;;;;;5034535;28;20032;-73
2022/10/28 14:34:57;;;;;;;11.00;4.43;;;;;;;;;;5016800;28;20041;-73
2022/10/28 14:37:52;;;;;;;10.37;5.07;;;;;;;;;;5034434;28;20025;-73
2022/10/28 14:40:22;;;;;;;6.93;4.18;;;;;;;;;;5017455;28;20359;-73
2022/10/28 14:42:53;;;;;;;9.50;4.50;;;;;;;;;;5034379;28;20030;-73